Time;durP1;ratioP1;P1;durP2;ratioP2;P2;SDS_P1;SDS_P2;PMS_P1;PMS_P2;Temp;Humidity;BMP_temperature;BMP_pressure;BME280_temperature;BME280_humidity;BME280_pressure;Samples;Min_cycle;Max_cycle;Signal;HPM_P1;HPM_P2
2024/03/25 00:02:21;;;;;;;17.10;9.20;;;;;;;11.40;53.19;98927.47;108205;1251;69226;-67
2024/03/25 00:04:48;;;;;;;18.20;9.90;;;;;;;11.55;52.77;98922.52;108226;1253;73100;-67
2024/03/25 00:07:16;;;;;;;25.50;11.60;;;;;;;11.53;52.68;98920.02;108059;1251;61193;-67
2024/03/25 00:09:44;;;;;;;15.20;9.20;;;;;;;11.56;52.51;98918.46;107904;1251;61119;-67
2024/03/25 00:12:11;;;;;;;17.90;10.40;;;;;;;11.56;52.47;98923.52;108095;1251;73977;-66
2024/03/25 00:14:41;;;;;;;21.90;11.70;;;;;;;11.54;52.51;98925.94;108142;1251;70306;-67
2024/03/25 00:17:11;;;;;;;21.00;10.50;;;;;;;11.47;52.62;98922.29;108083;1251;71391;-68
2024/03/25 00:19:38;;;;;;;18.10;10.60;;;;;;;11.54;52.47;98917.98;108171;1256;61389;-67
2024/03/25 00:22:05;;;;;;;17.20;9.40;;;;;;;11.64;52.35;98914.60;108073;1257;61192;-67
2024/03/25 00:24:33;;;;;;;20.90;12.70;;;;;;;11.71;52.11;98915.41;108205;1251;73415;-66
2024/03/25 00:27:00;;;;;;;23.20;12.30;;;;;;;11.62;52.34;98916.84;108205;1252;69601;-67
2024/03/25 00:29:27;;;;;;;18.30;11.50;;;;;;;11.71;52.14;98910.84;108062;1251;72672;-67
2024/03/25 00:31:55;;;;;;;23.00;13.00;;;;;;;11.73;52.12;98909.27;108145;1251;59641;-67
2024/03/25 00:34:22;;;;;;;22.80;12.00;;;;;;;11.70;52.14;98908.23;108180;1251;61113;-65
2024/03/25 00:36:50;;;;;;;23.40;12.70;;;;;;;11.61;52.40;98909.66;108074;1253;73318;-66
2024/03/25 00:39:17;;;;;;;25.90;12.90;;;;;;;11.38;52.92;98909.50;107977;1253;68877;-67
2024/03/25 00:41:45;;;;;;;18.90;12.00;;;;;;;11.19;53.49;98905.38;108034;1254;71456;-67
2024/03/25 00:44:12;;;;;;;23.10;12.00;;;;;;;11.19;53.48;98903.06;107989;1253;61371;-67
2024/03/25 00:46:41;;;;;;;22.20;10.80;;;;;;;11.33;53.26;98899.57;107990;1253;60380;-67
2024/03/25 00:49:09;;;;;;;27.00;12.50;;;;;;;11.44;52.95;98892.24;108137;1252;74693;-67
2024/03/25 00:51:37;;;;;;;22.10;12.90;;;;;;;11.48;52.80;98887.95;108099;1253;69522;-67
2024/03/25 00:54:04;;;;;;;25.50;13.40;;;;;;;11.46;52.82;98888.98;108143;1253;71484;-68
2024/03/25 00:56:31;;;;;;;21.60;12.80;;;;;;;11.31;53.12;98882.88;108065;1254;61238;-66
2024/03/25 00:59:02;;;;;;;23.40;12.80;;;;;;;11.31;53.06;98878.98;108024;1253;60015;-67
2024/03/25 01:01:29;;;;;;;24.10;13.10;;;;;;;11.39;52.89;98879.70;108020;1252;74537;-67
2024/03/25 01:03:57;;;;;;;22.20;13.30;;;;;;;11.33;52.88;98877.48;108068;1253;69316;-67
2024/03/25 01:06:25;;;;;;;25.30;13.20;;;;;;;11.22;53.09;98885.01;108076;1252;73620;-66
2024/03/25 01:08:52;;;;;;;22.20;12.40;;;;;;;11.28;52.86;98891.77;108055;1252;59634;-66
2024/03/25 01:11:19;;;;;;;26.10;12.50;;;;;;;11.30;52.77;98903.82;108114;1253;61067;-66
2024/03/25 01:13:46;;;;;;;20.10;9.30;;;;;;;11.33;52.71;98906.98;108150;1253;74658;-67
2024/03/25 01:16:14;;;;;;;20.10;11.20;;;;;;;11.32;52.63;98906.32;108101;1252;70157;-66
2024/03/25 01:18:41;;;;;;;20.20;11.10;;;;;;;11.25;52.70;98902.89;107991;1255;70972;-67
2024/03/25 01:21:08;;;;;;;15.00;8.80;;;;;;;11.15;52.91;98894.70;108023;1253;61266;-67
2024/03/25 01:23:35;;;;;;;17.60;10.40;;;;;;;10.99;53.16;98894.89;108096;1256;61056;-66
2024/03/25 01:26:03;;;;;;;17.20;9.00;;;;;;;10.86;53.37;98892.36;108115;1253;73447;-66
2024/03/25 01:28:30;;;;;;;23.00;12.40;;;;;;;10.67;53.81;98886.42;108021;1252;70041;-67
2024/03/25 01:30:58;;;;;;;17.30;11.60;;;;;;;10.66;53.80;98888.88;108103;1252;72486;-67
2024/03/25 01:33:25;;;;;;;21.40;11.60;;;;;;;10.79;53.44;98884.48;108084;1253;61317;-67
2024/03/25 01:35:55;;;;;;;23.90;12.50;;;;;;;10.74;53.46;98882.52;108109;1251;60769;-66
2024/03/25 01:38:23;;;;;;;20.60;11.50;;;;;;;10.66;53.57;98882.92;108264;1251;73955;-67
2024/03/25 01:40:50;;;;;;;25.10;12.30;;;;;;;10.69;53.51;98879.77;108105;1251;68702;-67
2024/03/25 01:43:17;;;;;;;20.50;12.30;;;;;;;10.70;53.59;98876.56;108185;1256;72676;-67
2024/03/25 01:45:45;;;;;;;23.00;12.20;;;;;;;10.77;53.48;98874.27;108105;1251;61262;-69
2024/03/25 01:48:12;;;;;;;20.70;12.00;;;;;;;10.76;53.45;98874.31;108095;1251;61287;-67
2024/03/25 01:50:42;;;;;;;23.60;12.40;;;;;;;10.70;53.57;98871.98;108089;1251;74659;-67
2024/03/25 01:53:10;;;;;;;25.00;12.60;;;;;;;10.74;53.50;98865.64;108257;1251;69924;-67
2024/03/25 01:55:38;;;;;;;30.20;12.80;;;;;;;10.65;53.62;98866.67;108034;1251;70961;-67
2024/03/25 01:58:08;;;;;;;24.50;12.30;;;;;;;10.58;53.79;98868.70;108145;1251;61623;-67
2024/03/25 02:00:35;;;;;;;24.60;13.40;;;;;;;10.57;53.89;98872.61;108219;1251;61027;-66
2024/03/25 02:03:02;;;;;;;23.60;13.30;;;;;;;10.54;53.95;98876.07;108253;1251;72554;-67
2024/03/25 02:05:30;;;;;;;16.90;9.00;;;;;;;10.60;53.93;98881.72;108091;1251;70113;-67
2024/03/25 02:07:57;;;;;;;21.50;12.10;;;;;;;10.65;53.90;98887.36;108087;1251;72693;-67
2024/03/25 02:10:25;;;;;;;26.40;12.60;;;;;;;10.78;53.66;98891.07;108042;1251;61191;-67
2024/03/25 02:12:52;;;;;;;23.90;12.30;;;;;;;10.87;53.58;98897.21;108095;1251;60802;-68
2024/03/25 02:15:19;;;;;;;24.40;12.80;;;;;;;10.93;53.14;98887.34;108086;1251;74600;-67
2024/03/25 02:17:47;;;;;;;23.20;13.50;;;;;;;10.84;53.33;98887.89;108068;1251;69930;-67
2024/03/25 02:20:15;;;;;;;21.80;13.10;;;;;;;10.71;53.49;98881.76;108191;1251;72924;-68
2024/03/25 02:22:43;;;;;;;20.40;12.50;;;;;;;10.81;53.29;98879.80;108104;1251;61068;-67
2024/03/25 02:25:10;;;;;;;18.20;10.50;;;;;;;10.92;52.91;98880.58;107939;1251;61145;-67
2024/03/25 02:27:38;;;;;;;20.40;11.80;;;;;;;10.95;52.87;98887.98;108144;1256;74630;-67
2024/03/25 02:30:10;;;;;;;23.70;12.70;;;;;;;10.90;53.00;98892.13;108115;1251;69190;-67
2024/03/25 02:32:38;;;;;;;21.60;13.40;;;;;;;10.96;52.92;98890.90;108142;1257;73225;-68
2024/03/25 02:35:10;;;;;;;22.30;13.20;;;;;;;10.93;52.77;98887.34;108188;1256;61243;-67
2024/03/25 02:37:38;;;;;;;21.20;12.00;;;;;;;10.86;52.88;98887.25;108074;1253;61066;-67
2024/03/25 02:40:07;;;;;;;23.10;12.60;;;;;;;10.78;53.01;98886.86;108127;1253;74495;-66
2024/03/25 02:42:35;;;;;;;21.40;11.50;;;;;;;10.70;53.21;98885.54;108044;1257;70249;-67
2024/03/25 02:45:03;;;;;;;18.90;10.80;;;;;;;10.80;53.00;98891.99;108066;1253;72886;-67
2024/03/25 02:47:30;;;;;;;26.60;13.80;;;;;;;10.72;53.08;98894.34;108080;1253;61270;-67
2024/03/25 02:49:58;;;;;;;25.10;12.70;;;;;;;10.70;53.20;98891.15;108074;1253;61082;-67
2024/03/25 02:52:25;;;;;;;25.40;14.30;;;;;;;10.78;52.96;98892.62;108021;1252;74656;-67
2024/03/25 02:54:54;;;;;;;23.20;12.40;;;;;;;10.80;52.87;98898.66;108063;1252;69627;-67
2024/03/25 02:57:21;;;;;;;22.90;12.10;;;;;;;10.86;52.72;98906.59;108119;1251;71438;-66
2024/03/25 02:59:49;;;;;;;25.00;12.30;;;;;;;10.84;52.63;98912.80;108206;1251;61080;-66
2024/03/25 03:02:16;;;;;;;23.80;11.20;;;;;;;10.71;52.80;98912.68;108088;1251;61713;-65
2024/03/25 03:04:43;;;;;;;23.00;11.80;;;;;;;10.65;52.92;98915.67;108124;1251;74630;-67
2024/03/25 03:07:10;;;;;;;22.90;12.20;;;;;;;10.50;53.31;98916.52;108100;1257;69932;-67
2024/03/25 03:09:38;;;;;;;20.50;11.40;;;;;;;10.53;53.33;98918.96;108120;1253;72705;-67
2024/03/25 03:12:05;;;;;;;21.30;12.20;;;;;;;10.54;53.30;98926.96;108181;1251;61240;-67
2024/03/25 03:14:32;;;;;;;18.50;10.20;;;;;;;10.52;53.31;98936.37;108032;1251;60598;-68
2024/03/25 03:17:04;;;;;;;19.60;11.10;;;;;;;10.52;53.30;98937.27;108114;1251;74841;-66
2024/03/25 03:19:31;;;;;;;21.30;11.20;;;;;;;10.48;53.49;98934.88;108233;1256;69889;-66
2024/03/25 03:22:02;;;;;;;22.10;11.20;;;;;;;10.57;53.20;98941.89;108207;1252;72076;-66
2024/03/25 03:24:29;;;;;;;23.00;11.30;;;;;;;10.59;53.22;98950.55;108170;1251;61110;-66
2024/03/25 03:26:57;;;;;;;20.10;11.70;;;;;;;10.69;52.94;98959.14;108237;1251;61206;-67
2024/03/25 03:29:24;;;;;;;18.60;10.90;;;;;;;10.70;52.98;98962.59;108122;1251;74572;-66
2024/03/25 03:31:51;;;;;;;19.40;10.60;;;;;;;10.73;52.90;98965.58;108208;1252;70327;-66
2024/03/25 03:34:18;;;;;;;19.90;10.80;;;;;;;10.66;53.12;98972.27;108068;1251;71298;-66
2024/03/25 03:36:46;;;;;;;21.00;11.20;;;;;;;10.65;53.14;98971.63;108237;1250;61107;-66
2024/03/25 03:39:13;;;;;;;22.30;11.40;;;;;;;10.61;53.24;98962.71;108194;1250;60801;-66
2024/03/25 03:41:40;;;;;;;17.80;11.20;;;;;;;10.52;53.36;98958.30;108203;1250;75033;-67
2024/03/25 03:44:09;;;;;;;26.60;11.90;;;;;;;10.63;53.14;98950.01;108210;1250;70604;-66
2024/03/25 03:46:36;;;;;;;21.10;11.00;;;;;;;10.63;53.28;98941.05;108318;1250;72919;-67
2024/03/25 03:49:03;;;;;;;54.00;19.20;;;;;;;10.57;53.40;98938.39;108210;1250;59911;-66
2024/03/25 03:54:13;;;;;;;32.90;14.60;;;;;;;9.71;56.88;98941.83;104930;1290;601500;-66
2024/03/25 03:56:40;;;;;;;36.80;15.50;;;;;;;11.09;52.78;98941.92;107310;1265;59570;-67
2024/03/25 03:59:08;;;;;;;31.80;12.50;;;;;;;10.83;53.03;98945.14;107335;1264;59252;-67
2024/03/25 04:01:35;;;;;;;19.30;10.10;;;;;;;10.39;54.22;98947.99;107569;1264;72982;-66
2024/03/25 04:04:02;;;;;;;22.90;12.00;;;;;;;10.27;54.53;98956.52;107359;1269;70387;-67
2024/03/25 04:06:29;;;;;;;23.00;10.90;;;;;;;10.11;54.77;98962.25;107363;1264;72674;-67
2024/03/25 04:08:57;;;;;;;25.80;11.30;;;;;;;10.15;54.88;98959.42;107744;1255;171567;-67
2024/03/25 04:11:24;;;;;;;21.70;11.40;;;;;;;10.13;54.91;98953.76;107937;1260;59521;-67
2024/03/25 04:13:51;;;;;;;19.20;10.20;;;;;;;10.12;54.90;98949.05;107950;1257;71591;-65
2024/03/25 04:16:18;;;;;;;21.90;11.60;;;;;;;10.12;54.92;98955.73;107925;1257;69337;-66
2024/03/25 04:18:47;;;;;;;22.70;11.30;;;;;;;10.11;55.02;98957.55;108290;1251;71740;-66
2024/03/25 04:21:14;;;;;;;22.40;11.30;;;;;;;10.07;55.19;98961.64;108244;1251;60421;-65
2024/03/25 04:23:43;;;;;;;23.20;11.50;;;;;;;10.04;55.25;98950.55;108331;1257;59016;-66
2024/03/25 04:26:10;;;;;;;28.80;16.40;;;;;;;10.01;55.46;98945.82;108299;1255;73851;-66
2024/03/25 04:28:38;;;;;;;29.20;16.30;;;;;;;10.02;55.46;98948.93;108323;1251;70273;-67
2024/03/25 04:31:07;;;;;;;43.00;25.50;;;;;;;9.95;55.65;98948.73;108364;1254;71388;-67
2024/03/25 04:33:34;;;;;;;39.90;22.50;;;;;;;10.01;55.78;98952.62;108303;1251;60906;-66
2024/03/25 04:36:02;;;;;;;43.70;25.10;;;;;;;9.86;56.22;98948.69;108263;1251;60281;-67
2024/03/25 04:38:29;;;;;;;73.70;48.90;;;;;;;9.99;56.17;98944.70;108283;1255;73828;-67
2024/03/25 04:40:56;;;;;;;37.90;24.70;;;;;;;10.25;55.72;98942.08;108288;1251;69869;-67
2024/03/25 04:43:24;;;;;;;41.90;24.90;;;;;;;10.31;55.62;98940.69;108256;1251;72083;-66
2024/03/25 04:45:51;;;;;;;33.30;20.70;;;;;;;10.33;55.68;98944.11;108307;1251;60852;-66
2024/03/25 04:48:18;;;;;;;42.60;23.30;;;;;;;10.37;55.74;98943.54;108333;1251;60344;-66
2024/03/25 04:50:45;;;;;;;42.30;20.90;;;;;;;10.33;56.00;98943.90;108190;1251;73856;-66
2024/03/25 04:53:13;;;;;;;52.90;26.30;;;;;;;10.47;55.87;98943.33;108269;1251;69422;-69
2024/03/25 04:55:41;;;;;;;60.30;26.90;;;;;;;10.51;55.89;98938.71;108361;1251;72645;-66
2024/03/25 04:58:08;;;;;;;61.90;29.20;;;;;;;10.51;55.93;98930.31;108340;1251;60833;-66
2024/03/25 05:00:37;;;;;;;55.90;25.70;;;;;;;10.50;56.34;98926.85;108362;1251;59561;-66
2024/03/25 05:03:05;;;;;;;49.30;23.90;;;;;;;10.43;56.56;98917.41;108449;1251;73861;-67
2024/03/25 05:05:32;;;;;;;37.80;20.20;;;;;;;10.47;56.61;98915.26;108194;1251;70342;-67
2024/03/25 05:07:59;;;;;;;38.80;20.60;;;;;;;10.61;56.38;98919.89;108320;1251;71706;-66
2024/03/25 05:10:26;;;;;;;32.30;18.20;;;;;;;10.76;56.22;98920.33;108261;1253;60284;-66
2024/03/25 05:12:55;;;;;;;41.90;19.80;;;;;;;10.81;56.24;98928.79;108281;1251;60510;-67
2024/03/25 05:15:22;;;;;;;44.00;19.60;;;;;;;10.74;56.58;98929.92;108172;1251;74386;-67
2024/03/25 05:17:54;;;;;;;30.60;16.30;;;;;;;10.87;56.47;98927.73;108267;1251;69975;-65
2024/03/25 05:20:22;;;;;;;25.00;13.60;;;;;;;10.90;56.41;98929.14;108267;1251;73490;-67
2024/03/25 05:22:50;;;;;;;25.30;12.70;;;;;;;10.93;56.59;98930.03;108309;1251;60268;-67
2024/03/25 05:25:18;;;;;;;22.80;12.00;;;;;;;11.07;56.37;98929.02;108331;1251;60737;-67
2024/03/25 05:27:45;;;;;;;22.30;11.60;;;;;;;11.15;56.19;98925.61;108098;1251;75223;-67
2024/03/25 05:30:13;;;;;;;17.20;10.00;;;;;;;11.07;56.42;98930.29;108340;1250;70470;-67
2024/03/25 05:32:40;;;;;;;18.60;10.50;;;;;;;11.08;56.61;98925.45;108376;1251;71187;-67
2024/03/25 05:35:07;;;;;;;24.90;12.30;;;;;;;11.11;56.79;98922.47;108297;1254;60888;-67
2024/03/25 05:37:36;;;;;;;22.50;11.90;;;;;;;11.17;56.74;98920.60;108174;1252;60274;-67
2024/03/25 05:40:04;;;;;;;30.60;14.00;;;;;;;11.33;56.62;98916.98;108132;1252;72560;-67
2024/03/25 05:42:31;;;;;;;17.10;9.90;;;;;;;11.44;56.42;98918.95;108223;1254;69028;-67
2024/03/25 05:44:58;;;;;;;17.20;9.40;;;;;;;11.59;56.33;98919.52;108110;1256;72483;-65
2024/03/25 05:47:26;;;;;;;14.90;8.30;;;;;;;11.60;56.29;98922.63;108071;1254;60530;-66
2024/03/25 05:49:53;;;;;;;11.20;6.90;;;;;;;11.73;56.07;98921.80;108172;1253;60511;-66
2024/03/25 05:52:20;;;;;;;13.60;6.90;;;;;;;11.71;56.08;98923.66;108165;1254;72560;-67
2024/03/25 05:54:47;;;;;;;11.00;6.90;;;;;;;11.71;56.36;98928.25;108141;1254;70015;-66
2024/03/25 05:57:15;;;;;;;10.60;6.10;;;;;;;11.87;56.16;98928.17;108135;1252;71809;-67
2024/03/25 05:59:42;;;;;;;13.60;7.40;;;;;;;12.05;55.60;98931.65;108340;1253;60437;-67
2024/03/25 06:02:09;;;;;;;14.70;7.00;;;;;;;12.12;54.93;98931.20;108326;1254;60284;-67
2024/03/25 06:04:36;;;;;;;11.90;5.50;;;;;;;12.19;54.52;98924.58;108226;1254;72605;-67
2024/03/25 06:07:04;;;;;;;17.00;7.80;;;;;;;12.16;54.51;98920.58;108174;1253;70309;-67
2024/03/25 06:09:31;;;;;;;24.10;10.30;;;;;;;12.23;54.11;98919.06;108180;1253;72331;-67
2024/03/25 06:11:58;;;;;;;13.70;7.80;;;;;;;12.20;54.05;98919.98;108166;1253;60882;-67
2024/03/25 06:14:25;;;;;;;14.90;8.00;;;;;;;12.26;53.79;98925.77;108202;1254;60336;-67
2024/03/25 06:16:52;;;;;;;17.90;8.30;;;;;;;12.33;53.47;98928.27;108184;1256;74357;-67
2024/03/25 06:19:21;;;;;;;12.90;6.50;;;;;;;12.20;53.73;98929.27;108165;1253;67729;-67
2024/03/25 06:21:48;;;;;;;12.80;6.00;;;;;;;12.04;53.98;98924.36;108182;1254;72468;-67
2024/03/25 06:24:16;;;;;;;18.40;7.50;;;;;;;12.05;54.03;98920.05;108182;1254;60537;-66
2024/03/25 06:26:43;;;;;;;12.80;6.30;;;;;;;12.14;53.77;98924.89;108186;1253;60387;-66
2024/03/25 06:29:10;;;;;;;17.90;8.00;;;;;;;12.19;53.01;98926.02;108204;1253;72461;-68
2024/03/25 06:34:24;;;;;;;18.80;8.20;;;;;;;12.34;52.61;98935.10;108260;1251;72139;-68
2024/03/25 06:36:51;;;;;;;17.00;6.90;;;;;;;12.35;52.37;98941.88;108371;1251;60297;-68
2024/03/25 06:39:18;;;;;;;29.90;9.60;;;;;;;12.48;52.10;98948.30;108362;1251;60239;-67
2024/03/25 06:41:49;;;;;;;15.40;6.60;;;;;;;12.60;51.22;98951.61;108303;1256;72827;-67
2024/03/25 06:44:16;;;;;;;12.10;6.20;;;;;;;12.66;50.75;98954.74;108340;1251;70343;-67
2024/03/25 06:46:43;;;;;;;20.20;7.00;;;;;;;12.68;50.50;98957.92;108305;1256;71127;-67
2024/03/25 06:49:11;;;;;;;15.80;6.50;;;;;;;12.73;50.49;98957.63;108294;1251;60843;-67
2024/03/25 06:51:38;;;;;;;19.10;7.40;;;;;;;12.70;50.49;98960.47;108317;1251;60457;-66
2024/03/25 06:54:05;;;;;;;32.50;9.80;;;;;;;12.81;50.66;98959.75;108328;1251;72541;-66
2024/03/25 06:56:32;;;;;;;15.80;6.70;;;;;;;12.91;50.23;98958.92;108317;1251;68794;-66
2024/03/25 06:59:00;;;;;;;12.80;5.30;;;;;;;12.93;50.25;98964.43;108320;1251;73457;-67
2024/03/25 07:01:27;;;;;;;17.00;6.40;;;;;;;13.17;49.77;98971.28;108384;1256;60302;-67
2024/03/25 07:03:54;;;;;;;15.00;5.50;;;;;;;13.24;49.93;98976.33;108396;1251;60302;-67
2024/03/25 07:06:23;;;;;;;9.00;5.10;;;;;;;13.36;49.73;98966.56;108352;1251;74594;-67
2024/03/25 07:08:51;;;;;;;14.00;6.00;;;;;;;13.50;49.71;98961.74;108336;1251;72539;-67
2024/03/25 07:11:18;;;;;;;9.20;5.30;;;;;;;13.45;49.69;98960.45;108306;1251;71399;-67
2024/03/25 07:13:47;;;;;;;15.70;5.80;;;;;;;13.59;49.70;98962.56;108331;1251;60831;-67
2024/03/25 07:16:14;;;;;;;12.60;5.50;;;;;;;13.75;49.23;98960.75;108362;1251;60730;-67
2024/03/25 07:18:41;;;;;;;11.70;5.70;;;;;;;13.97;48.82;98957.85;108304;1251;72519;-67
2024/03/25 07:21:09;;;;;;;14.20;5.70;;;;;;;14.16;48.99;98955.10;108276;1257;70750;-67
2024/03/25 08:25:25;;;;;;;11.50;5.10;;;;;;;15.16;42.87;98979.36;104887;1290;600316;-67
2024/03/25 08:27:52;;;;;;;9.00;4.60;;;;;;;15.16;42.31;98977.23;107327;1266;60200;-67
2024/03/25 08:30:20;;;;;;;21.20;7.60;;;;;;;15.12;42.17;98978.77;107457;1267;59605;-68
2024/03/25 08:32:47;;;;;;;25.30;7.00;;;;;;;15.11;42.20;98979.91;107386;1261;75252;-68
2024/03/25 08:35:14;;;;;;;13.90;5.20;;;;;;;15.23;41.88;98984.81;107422;1263;69493;-68
2024/03/25 08:37:43;;;;;;;17.70;6.00;;;;;;;15.33;41.36;98986.42;107368;1264;72899;-68
2024/03/25 08:40:10;;;;;;;19.30;5.70;;;;;;;15.32;41.01;98986.42;107800;1254;213436;-68
2024/03/25 08:42:38;;;;;;;9.60;4.10;;;;;;;15.47;40.63;98986.57;107871;1254;59516;-67
2024/03/25 08:45:06;;;;;;;8.70;4.50;;;;;;;15.41;40.52;98983.71;107873;1254;73364;-68
2024/03/25 08:47:33;;;;;;;24.40;6.70;;;;;;;15.37;40.44;98985.17;108037;1254;69299;-68
2024/03/25 08:50:02;;;;;;;9.80;3.90;;;;;;;15.29;40.06;98977.83;107913;1255;73639;-67
2024/03/25 08:52:29;;;;;;;81.40;41.20;;;;;;;15.46;39.47;98984.20;107873;1254;63131;-69
2024/03/25 08:54:56;;;;;;;16.40;7.80;;;;;;;15.61;39.47;98981.42;107959;1254;60370;-67
2024/03/25 08:57:24;;;;;;;20.80;5.40;;;;;;;15.84;38.79;98977.11;107601;1255;73928;-67
2024/03/25 08:59:51;;;;;;;7.10;3.40;;;;;;;15.72;38.54;98977.45;107864;1254;70666;-67
2024/03/25 09:02:18;;;;;;;15.80;5.20;;;;;;;15.56;38.96;98976.69;107959;1257;74306;-67
2024/03/25 09:04:46;;;;;;;26.50;6.50;;;;;;;15.68;38.91;98976.00;107998;1257;59437;-67
2024/03/25 09:07:16;;;;;;;11.60;4.00;;;;;;;15.77;39.06;98974.61;108030;1259;60482;-67
2024/03/25 09:12:30;;;;;;;10.60;3.30;;;;;;;15.93;38.11;98979.16;107979;1254;70605;-67
2024/03/25 09:14:57;;;;;;;16.60;5.10;;;;;;;16.25;37.51;98985.03;107977;1254;72667;-67
2024/03/25 09:17:24;;;;;;;15.90;4.30;;;;;;;16.26;37.15;98986.23;107984;1257;61219;-67
2024/03/25 09:19:52;;;;;;;37.40;9.70;;;;;;;16.41;36.34;98982.37;108198;1251;60513;-67
2024/03/25 09:22:19;;;;;;;15.90;4.30;;;;;;;16.45;36.61;98976.02;108206;1251;73664;-67
2024/03/25 09:24:47;;;;;;;9.80;2.50;;;;;;;16.72;36.43;98965.39;108173;1256;72706;-67
2024/03/25 09:27:15;;;;;;;8.90;2.90;;;;;;;16.97;36.06;98966.14;108198;1254;73611;-67
2024/03/25 09:29:43;;;;;;;10.00;3.30;;;;;;;17.04;35.33;98963.67;108234;1251;60761;-67
2024/03/25 09:32:11;;;;;;;6.40;2.70;;;;;;;17.11;35.53;98962.75;108148;1251;59553;-67
2024/03/25 09:34:39;;;;;;;12.20;3.70;;;;;;;17.37;34.68;98966.92;108197;1256;76204;-67
2024/03/25 09:37:06;;;;;;;12.20;2.90;;;;;;;17.35;33.74;98960.91;108273;1251;69221;-67
2024/03/25 09:39:33;;;;;;;10.80;3.80;;;;;;;17.19;33.59;98955.17;108241;1254;73358;-67
2024/03/25 09:42:01;;;;;;;32.10;11.50;;;;;;;17.15;34.15;98956.70;108155;1251;60452;-67
2024/03/25 09:44:28;;;;;;;11.50;5.00;;;;;;;17.16;34.04;98952.70;108260;1251;60181;-67
2024/03/25 09:46:56;;;;;;;31.90;7.10;;;;;;;17.11;34.14;98953.52;108077;1251;72707;-67
2024/03/25 09:49:23;;;;;;;18.00;5.00;;;;;;;16.97;34.05;98951.80;108053;1251;71760;-67
2024/03/25 09:51:50;;;;;;;8.50;3.10;;;;;;;17.06;34.01;98952.52;108203;1251;72946;-67
2024/03/25 09:54:18;;;;;;;16.30;4.60;;;;;;;17.20;33.96;98956.15;107926;1251;60775;-68
2024/03/25 09:56:45;;;;;;;16.40;4.90;;;;;;;17.35;33.93;98953.61;108156;1253;62235;-68
2024/03/25 09:59:13;;;;;;;16.00;4.70;;;;;;;17.62;33.55;98948.71;108059;1253;73131;-69
2024/03/25 10:01:40;;;;;;;11.40;3.60;;;;;;;17.76;32.70;98945.86;107887;1254;71723;-68
2024/03/25 10:04:08;;;;;;;13.40;3.80;;;;;;;18.09;32.65;98939.02;108017;1254;71586;-68
2024/03/25 10:06:35;;;;;;;7.70;2.80;;;;;;;18.14;32.17;98939.49;108060;1253;60418;-68
2024/03/25 10:09:06;;;;;;;9.70;3.10;;;;;;;17.91;31.60;98945.20;108137;1254;60978;-68
2024/03/25 10:11:35;;;;;;;17.50;4.50;;;;;;;17.86;31.64;98946.13;108184;1252;74141;-68
2024/03/25 10:14:02;;;;;;;11.50;3.90;;;;;;;17.78;31.98;98949.13;108138;1253;69790;-68
2024/03/25 10:16:29;;;;;;;9.20;3.00;;;;;;;17.80;32.32;98947.52;108094;1254;75436;-69
2024/03/25 10:18:57;;;;;;;7.60;3.00;;;;;;;17.83;32.14;98940.70;108202;1254;60351;-69
2024/03/25 10:21:25;;;;;;;10.60;3.40;;;;;;;17.87;32.03;98945.50;108143;1257;61007;-66
2024/03/25 10:23:53;;;;;;;12.60;4.70;;;;;;;17.66;32.09;98942.69;108126;1254;74171;-67
2024/03/25 10:26:28;;;;;;;13.50;4.20;;;;;;;17.55;32.11;98939.73;108103;1257;69499;-67
2024/03/25 10:29:04;;;;;;;24.00;7.00;;;;;;;17.24;32.22;98939.96;108098;1253;73127;-68
2024/03/25 10:31:31;;;;;;;11.00;3.70;;;;;;;17.03;32.59;98948.48;108185;1254;60346;-68
2024/03/25 10:33:59;;;;;;;11.40;4.00;;;;;;;16.72;32.54;98943.58;108181;1253;62238;-68
2024/03/25 10:36:26;;;;;;;21.40;6.20;;;;;;;16.65;33.07;98944.32;108181;1254;76193;-68
2024/03/25 10:39:00;;;;;;;10.40;3.50;;;;;;;16.64;33.37;98939.05;108139;1257;68322;-67
2024/03/25 10:41:27;;;;;;;11.90;5.00;;;;;;;16.57;33.63;98935.67;108036;1259;74915;-69
2024/03/25 10:43:54;;;;;;;13.20;4.10;;;;;;;16.61;33.77;98929.05;108172;1254;61011;-68
2024/03/25 10:46:22;;;;;;;6.80;2.80;;;;;;;16.74;33.38;98925.67;108078;1254;60280;-67
2024/03/25 10:48:53;;;;;;;14.80;4.40;;;;;;;16.80;33.47;98923.61;108090;1253;75057;-67
2024/03/25 10:51:21;;;;;;;16.90;8.50;;;;;;;16.93;33.45;98918.77;108163;1254;72399;-68
2024/03/25 10:53:51;;;;;;;15.80;6.20;;;;;;;17.04;33.34;98920.20;108136;1253;72682;-67
2024/03/25 10:56:22;;;;;;;12.20;3.80;;;;;;;17.24;33.54;98921.36;108127;1253;60434;-68
2024/03/25 10:58:49;;;;;;;8.80;3.90;;;;;;;17.25;33.52;98920.36;108068;1253;61434;-69
2024/03/25 11:01:17;;;;;;;18.60;4.30;;;;;;;17.28;33.76;98917.48;108150;1253;72959;-67
2024/03/25 11:03:45;;;;;;;9.60;3.40;;;;;;;17.25;33.05;98913.61;108045;1253;70041;-67
2024/03/25 11:06:13;;;;;;;8.70;2.90;;;;;;;17.17;32.86;98914.20;108118;1253;73100;-68
2024/03/25 11:08:41;;;;;;;17.00;5.30;;;;;;;17.10;32.16;98914.03;108205;1256;61214;-67
2024/03/25 11:11:08;;;;;;;8.30;3.40;;;;;;;17.19;32.50;98913.48;108153;1252;61018;-67
2024/03/25 11:13:36;;;;;;;14.70;4.40;;;;;;;17.24;32.39;98916.09;108123;1254;72159;-68
2024/03/25 11:16:04;;;;;;;13.10;3.70;;;;;;;17.13;32.64;98911.81;108099;1253;72629;-67
2024/03/25 11:18:33;;;;;;;9.90;3.20;;;;;;;17.14;33.09;98910.48;107878;1253;72510;-67
2024/03/25 11:21:07;;;;;;;11.70;2.60;;;;;;;17.24;32.90;98905.77;108047;1254;61487;-68
2024/03/25 11:23:40;;;;;;;15.70;3.90;;;;;;;17.10;32.73;98906.02;108172;1253;60478;-67
2024/03/25 11:26:22;;;;;;;10.30;3.00;;;;;;;17.06;32.88;98905.38;108080;1254;75915;-67
2024/03/25 11:28:49;;;;;;;20.20;5.20;;;;;;;17.15;32.99;98908.31;108068;1254;72635;-69
2024/03/25 11:31:18;;;;;;;25.50;6.40;;;;;;;16.98;32.71;98904.77;108047;1254;73401;-67
2024/03/25 11:33:47;;;;;;;18.30;5.20;;;;;;;16.71;32.97;98897.17;108031;1253;60829;-68
2024/03/25 11:36:14;;;;;;;16.90;4.80;;;;;;;16.76;33.13;98897.16;108142;1251;61365;-68
2024/03/25 11:38:44;;;;;;;16.30;4.60;;;;;;;16.71;33.14;98897.71;108237;1251;73970;-69
2024/03/25 11:41:12;;;;;;;16.50;4.80;;;;;;;16.76;33.21;98895.92;108298;1251;70515;-68
2024/03/25 11:43:39;;;;;;;10.20;3.60;;;;;;;16.76;33.26;98891.45;108178;1256;73647;-68
2024/03/25 11:46:07;;;;;;;18.50;4.20;;;;;;;16.76;33.51;98891.82;108053;1251;60994;-67
2024/03/25 11:48:34;;;;;;;9.60;2.60;;;;;;;16.86;33.48;98892.08;108206;1251;60316;-69
2024/03/25 11:51:03;;;;;;;8.20;3.10;;;;;;;16.80;33.46;98892.73;108213;1251;75747;-67
2024/03/25 11:53:30;;;;;;;7.50;2.90;;;;;;;16.78;33.69;98888.46;108152;1251;71036;-67
2024/03/25 11:55:58;;;;;;;24.00;8.60;;;;;;;16.78;33.30;98887.38;108137;1251;73669;-67
2024/03/25 11:58:25;;;;;;;17.80;6.90;;;;;;;16.60;32.99;98886.58;107930;1251;60302;-67
2024/03/25 12:00:52;;;;;;;11.10;3.90;;;;;;;16.52;33.59;98885.77;108041;1254;60476;-67
2024/03/25 12:03:21;;;;;;;7.50;2.30;;;;;;;16.51;33.95;98885.20;107984;1251;74143;-67
2024/03/25 12:05:56;;;;;;;9.20;2.70;;;;;;;16.30;32.99;98885.86;108025;1251;69106;-68
2024/03/25 12:08:27;;;;;;;7.70;2.70;;;;;;;16.13;33.15;98891.74;108207;1253;70281;-68
2024/03/25 12:13:42;;;;;;;6.70;2.40;;;;;;;16.25;33.25;98888.88;108190;1251;62428;-67
2024/03/25 12:16:09;;;;;;;7.30;2.10;;;;;;;16.11;33.12;98892.27;108214;1251;76240;-67
2024/03/25 12:18:41;;;;;;;5.00;1.60;;;;;;;15.97;33.00;98889.67;108224;1251;70238;-67
2024/03/25 12:21:08;;;;;;;6.40;2.00;;;;;;;15.95;32.93;98889.09;108203;1251;72519;-67
2024/03/25 12:23:36;;;;;;;6.00;2.40;;;;;;;15.90;32.62;98885.62;108031;1253;60339;-67
2024/03/25 12:26:04;;;;;;;5.90;2.00;;;;;;;15.90;32.51;98889.55;108177;1251;61009;-67
2024/03/25 12:28:31;;;;;;;4.20;1.90;;;;;;;15.78;32.79;98888.39;108032;1251;74002;-67
2024/03/25 12:30:59;;;;;;;4.30;1.60;;;;;;;15.66;33.37;98888.19;108180;1251;68248;-68